Zim California — 4XIS — position and weather

sailwx.info

Track history (hours):
 
Tides and Currents Weather Stations Pressure Air Temp Water Temp Dewpoint Dewpoint Depression Visibility Wind Speed Wind Dir Waves Ship Positions

Zim California

Last reported at 2017-Dec-08 18:59 UTC. Time now 2017-Dec-11 05:39 UTC.
Position N 35°04' W 025°41'.

Type: Cargo ship. MMSI: 428010000.

Date/timePositionNaut miles runAvg speedWind from/ knotsBaromVisibWave heightAir tempDewpointWater temp
2017-Dec-08 18:59N 35°04' W 025°41'  
2017-Nov-30 19:52N 31°58' W 080°29'3 9.8
2017-Nov-30 19:30N 31°58' W 080°33'5 9.7
2017-Nov-30 19:00N 31°58' W 080°39'4 9.0
2017-Nov-30 18:30N 31°58' W 080°44'612.3
2017-Nov-30 18:00N 32°02' W 080°49'5 9.7
2017-Nov-30 17:30N 32°02' W 080°55'510.7
2017-Nov-30 17:00N 32°06' W 080°60'3 5.5
2017-Nov-30 16:30N 32°05' W 081°03'3 5.8
2017-Nov-30 16:00N 32°06' W 081°06'2 4.7
2017-Nov-30 15:30N 32°07' W 081°08'0 0.0
2017-Nov-30 14:42N 32°07' W 081°08'0 0.0
2017-Nov-30 14:30N 32°07' W 081°08'0 0.0
2017-Nov-30 14:00N 32°07' W 081°08'0 0.0
2017-Nov-30 13:18N 32°07' W 081°08'0 0.0
2017-Nov-30 13:00N 32°07' W 081°08'0 0.0
2017-Nov-30 12:24N 32°07' W 081°08'0 0.0
2017-Nov-30 11:54N 32°07' W 081°08'0 0.0
2017-Nov-30 11:18N 32°07' W 081°08'0 0.0
2017-Nov-30 11:00N 32°07' W 081°08'0 0.0
2017-Nov-30 10:00N 32°07' W 081°08'0 0.0
2017-Nov-30 09:18N 32°07' W 081°08'0 0.0
2017-Nov-30 09:00N 32°07' W 081°08'0 0.0
2017-Nov-30 08:30N 32°07' W 081°08'0 0.0
2017-Nov-30 08:00N 32°07' W 081°08'0 0.0
2017-Nov-30 07:30N 32°07' W 081°08'0 0.0
2017-Nov-30 07:00N 32°07' W 081°08'0 0.0
2017-Nov-30 05:36N 32°07' W 081°08'0 0.1
2017-Nov-30 05:30N 32°07' W 081°08'0 0.0
2017-Nov-30 05:00N 32°07' W 081°08'0 0.0
2017-Nov-30 04:18N 32°07' W 081°08'0 0.1
2017-Nov-30 04:00N 32°07' W 081°08'0 0.0
2017-Nov-30 03:30N 32°07' W 081°08'0 0.0
2017-Nov-30 03:00N 32°07' W 081°08'0 0.0
2017-Nov-30 02:30N 32°07' W 081°08'0 0.0
2017-Nov-30 02:00N 32°07' W 081°08'0 0.0
2017-Nov-30 01:30N 32°07' W 081°08'0 0.0
2017-Nov-30 01:00N 32°07' W 081°08'0 0.0
2017-Nov-30 00:30N 32°07' W 081°08'0 0.0
2017-Nov-30 00:00N 32°07' W 081°08'0 0.0
2017-Nov-29 23:24N 32°07' W 081°08'0 0.0
2017-Nov-29 23:00N 32°07' W 081°08'0 0.0
2017-Nov-29 22:30N 32°07' W 081°08'0 0.0
2017-Nov-29 22:00N 32°07' W 081°08'0 0.0
2017-Nov-29 21:30N 32°07' W 081°08'0 0.0
2017-Nov-29 20:54N 32°07' W 081°08'0 0.0
2017-Nov-29 20:30N 32°07' W 081°08'0 0.0
2017-Nov-29 19:54N 32°07' W 081°08'0 0.0
2017-Nov-29 19:30N 32°07' W 081°08'0 0.0
2017-Nov-29 18:42N 32°07' W 081°08'0 0.1
2017-Nov-29 18:24N 32°07' W 081°08'0 0.0
2017-Nov-29 17:54N 32°07' W 081°08'0 0.0
2017-Nov-29 17:24N 32°07' W 081°08'0 0.0
2017-Nov-29 16:36N 32°07' W 081°08'0 0.0
2017-Nov-29 16:24N 32°07' W 081°08'0 0.0
2017-Nov-29 16:00N 32°07' W 081°08'1 1.6
2017-Nov-29 15:30N 32°08' W 081°08'2 3.0
2017-Nov-29 15:00N 32°07' W 081°07'2 4.8
2017-Nov-29 14:30N 32°05' W 081°05'2 4.5
2017-Nov-29 14:00N 32°05' W 081°03'3 6.1
2017-Nov-29 13:30N 32°05' W 080°59'5 9.8
2017-Nov-29 13:00N 32°02' W 080°54'510.5
2017-Nov-29 12:30N 32°01' W 080°48'713.9
2017-Nov-29 12:00N 31°57' W 080°41'4 8.9
2017-Nov-29 11:30N 31°56' W 080°36'5 9.0
2017-Nov-29 11:00N 31°56' W 080°31'5 9.6
2017-Nov-29 10:30N 31°57' W 080°25'5 9.5
2017-Nov-29 10:00N 31°58' W 080°20'714.0
2017-Nov-29 09:30N 32°01' W 080°13'1317.0
2017-Nov-29 08:46N 32°07' W 079°60'  
Track history (hours):
 
Tides and Currents Weather Stations Pressure Air Temp Water Temp Dewpoint Dewpoint Depression Visibility Wind Speed Wind Dir Waves Ship Positions

Zim California

Last reported at 2017-Dec-08 18:59 UTC. Time now 2017-Dec-11 05:39 UTC.
Position N 35°04' W 025°41'.

Type: Cargo ship. MMSI: 428010000.

Date/timePositionNaut miles runAvg speedWind from/ knotsBaromVisibWave heightAir tempDewpointWater temp
2017-Dec-08 18:59N 35°04' W 025°41'  
2017-Nov-30 19:52N 31°58' W 080°29'3 9.8
2017-Nov-30 19:30N 31°58' W 080°33'5 9.7
2017-Nov-30 19:00N 31°58' W 080°39'4 9.0
2017-Nov-30 18:30N 31°58' W 080°44'612.3
2017-Nov-30 18:00N 32°02' W 080°49'5 9.7
2017-Nov-30 17:30N 32°02' W 080°55'510.7
2017-Nov-30 17:00N 32°06' W 080°60'3 5.5
2017-Nov-30 16:30N 32°05' W 081°03'3 5.8
2017-Nov-30 16:00N 32°06' W 081°06'2 4.7
2017-Nov-30 15:30N 32°07' W 081°08'0 0.0
2017-Nov-30 14:42N 32°07' W 081°08'0 0.0
2017-Nov-30 14:30N 32°07' W 081°08'0 0.0
2017-Nov-30 14:00N 32°07' W 081°08'0 0.0
2017-Nov-30 13:18N 32°07' W 081°08'0 0.0
2017-Nov-30 13:00N 32°07' W 081°08'0 0.0
2017-Nov-30 12:24N 32°07' W 081°08'0 0.0
2017-Nov-30 11:54N 32°07' W 081°08'0 0.0
2017-Nov-30 11:18N 32°07' W 081°08'0 0.0
2017-Nov-30 11:00N 32°07' W 081°08'0 0.0
2017-Nov-30 10:00N 32°07' W 081°08'0 0.0
2017-Nov-30 09:18N 32°07' W 081°08'0 0.0
2017-Nov-30 09:00N 32°07' W 081°08'0 0.0
2017-Nov-30 08:30N 32°07' W 081°08'0 0.0
2017-Nov-30 08:00N 32°07' W 081°08'0 0.0
2017-Nov-30 07:30N 32°07' W 081°08'0 0.0
2017-Nov-30 07:00N 32°07' W 081°08'0 0.0
2017-Nov-30 05:36N 32°07' W 081°08'0 0.1
2017-Nov-30 05:30N 32°07' W 081°08'0 0.0
2017-Nov-30 05:00N 32°07' W 081°08'0 0.0
2017-Nov-30 04:18N 32°07' W 081°08'0 0.1
2017-Nov-30 04:00N 32°07' W 081°08'0 0.0
2017-Nov-30 03:30N 32°07' W 081°08'0 0.0
2017-Nov-30 03:00N 32°07' W 081°08'0 0.0
2017-Nov-30 02:30N 32°07' W 081°08'0 0.0
2017-Nov-30 02:00N 32°07' W 081°08'0 0.0
2017-Nov-30 01:30N 32°07' W 081°08'0 0.0
2017-Nov-30 01:00N 32°07' W 081°08'0 0.0
2017-Nov-30 00:30N 32°07' W 081°08'0 0.0
2017-Nov-30 00:00N 32°07' W 081°08'0 0.0
2017-Nov-29 23:24N 32°07' W 081°08'0 0.0
2017-Nov-29 23:00N 32°07' W 081°08'0 0.0
2017-Nov-29 22:30N 32°07' W 081°08'0 0.0
2017-Nov-29 22:00N 32°07' W 081°08'0 0.0
2017-Nov-29 21:30N 32°07' W 081°08'0 0.0
2017-Nov-29 20:54N 32°07' W 081°08'0 0.0
2017-Nov-29 20:30N 32°07' W 081°08'0 0.0
2017-Nov-29 19:54N 32°07' W 081°08'0 0.0
2017-Nov-29 19:30N 32°07' W 081°08'0 0.0
2017-Nov-29 18:42N 32°07' W 081°08'0 0.1
2017-Nov-29 18:24N 32°07' W 081°08'0 0.0
2017-Nov-29 17:54N 32°07' W 081°08'0 0.0
2017-Nov-29 17:24N 32°07' W 081°08'0 0.0
2017-Nov-29 16:36N 32°07' W 081°08'0 0.0
2017-Nov-29 16:24N 32°07' W 081°08'0 0.0
2017-Nov-29 16:00N 32°07' W 081°08'1 1.6
2017-Nov-29 15:30N 32°08' W 081°08'2 3.0
2017-Nov-29 15:00N 32°07' W 081°07'2 4.8
2017-Nov-29 14:30N 32°05' W 081°05'2 4.5
2017-Nov-29 14:00N 32°05' W 081°03'3 6.1
2017-Nov-29 13:30N 32°05' W 080°59'5 9.8
2017-Nov-29 13:00N 32°02' W 080°54'510.5
2017-Nov-29 12:30N 32°01' W 080°48'713.9
2017-Nov-29 12:00N 31°57' W 080°41'4 8.9
2017-Nov-29 11:30N 31°56' W 080°36'5 9.0
2017-Nov-29 11:00N 31°56' W 080°31'5 9.6
2017-Nov-29 10:30N 31°57' W 080°25'5 9.5
2017-Nov-29 10:00N 31°58' W 080°20'714.0
2017-Nov-29 09:30N 32°01' W 080°13'1317.0
2017-Nov-29 08:46N 32°07' W 079°60'  

Dump ship's entire track history